createdAt,value
2023-04-27T00:00:37.772Z,72.65
2023-04-27T00:05:55.552Z,71.86
2023-04-27T00:11:00.457Z,73.22
2023-04-27T00:16:05.264Z,73.42
2023-04-27T00:21:12.285Z,74.90
2023-04-27T00:26:16.596Z,75.12
2023-04-27T00:31:23.698Z,75.10
2023-04-27T00:36:29.484Z,75.78
2023-04-27T00:41:34.071Z,76.39
2023-04-27T00:46:38.539Z,76.96
2023-04-27T00:51:44.251Z,77.27
2023-04-27T00:56:50.381Z,77.07
2023-04-27T01:01:55.283Z,76.36
2023-04-27T01:07:02.806Z,76.31
2023-04-27T01:12:09.007Z,76.38
2023-04-27T01:17:14.364Z,75.89
2023-04-27T01:22:20.307Z,77.46
2023-04-27T01:27:26.284Z,76.96
2023-04-27T01:32:30.812Z,77.27
2023-04-27T01:37:35.941Z,77.91
2023-04-27T01:42:42.355Z,78.03
2023-04-27T01:47:47.037Z,78.94
2023-04-27T01:52:51.542Z,79.37
2023-04-27T01:57:57.315Z,79.51
2023-04-27T02:03:02.116Z,79.86
2023-04-27T02:08:07.156Z,80.49
2023-04-27T02:13:12.987Z,79.58
2023-04-27T02:18:17.362Z,79.18
2023-04-27T02:23:21.716Z,78.93
2023-04-27T02:28:27.462Z,79.74
2023-04-27T02:33:32.236Z,77.89
2023-04-27T02:38:36.656Z,77.98
2023-04-27T02:43:42.279Z,78.93
2023-04-27T02:48:46.637Z,78.75
2023-04-27T02:53:51.032Z,78.98
2023-04-27T02:58:57.186Z,79.37
2023-04-27T03:04:01.690Z,78.83
2023-04-27T03:09:06.274Z,79.39
2023-04-27T03:14:12.914Z,80.05
2023-04-27T03:19:17.106Z,81.24
2023-04-27T03:24:21.973Z,81.15
2023-04-27T03:29:28.478Z,81.72
2023-04-27T03:34:33.404Z,82.03
2023-04-27T03:39:37.536Z,83.15
2023-04-27T03:44:43.260Z,84.15
2023-04-27T03:49:47.926Z,83.43
2023-04-27T03:54:53.241Z,83.33
2023-04-27T03:59:59.411Z,82.94
2023-04-27T04:05:04.403Z,82.03
2023-04-27T04:10:09.909Z,81.38
2023-04-27T04:15:16.563Z,80.84
2023-04-27T04:20:21.219Z,80.72
2023-04-27T04:25:26.327Z,79.78
2023-04-27T04:30:32.784Z,79.13
2023-04-27T04:35:39.560Z,78.44
2023-04-27T04:40:45.877Z,77.62
2023-04-27T04:45:51.927Z,76.20
2023-04-27T04:50:57.420Z,74.30
2023-04-27T04:56:10.187Z,72.74
2023-04-27T05:01:16.511Z,72.31
2023-04-27T05:06:21.226Z,70.77
2023-04-27T05:11:25.669Z,67.76
2023-04-27T05:16:31.253Z,64.76
2023-04-27T05:21:35.815Z,59.12
2023-04-27T05:26:40.170Z,55.75
2023-04-27T05:31:45.978Z,55.61
2023-04-27T05:36:50.650Z,55.01
2023-04-27T05:41:55.456Z,55.29
2023-04-27T05:47:01.604Z,54.36
2023-04-27T05:52:06.175Z,48.91
2023-04-27T05:57:10.296Z,43.20
2023-04-27T06:02:16.719Z,41.30
2023-04-27T06:07:21.619Z,36.95
2023-04-27T06:12:26.030Z,35.17
2023-04-27T06:17:32.153Z,34.65
2023-04-27T06:22:37.803Z,33.86
2023-04-27T06:27:42.212Z,38.42
2023-04-27T06:32:48.050Z,44.25
2023-04-27T06:37:52.427Z,44.26
2023-04-27T06:42:57.308Z,39.10
2023-04-27T06:48:03.384Z,35.08
2023-04-27T06:53:08.467Z,33.24
2023-04-27T06:58:12.839Z,31.20
2023-04-27T07:03:18.770Z,30.14
2023-04-27T07:08:23.275Z,29.55
2023-04-27T07:13:27.831Z,27.88
2023-04-27T07:18:33.419Z,28.18
2023-04-27T07:23:37.892Z,28.00
2023-04-27T07:28:42.244Z,28.93
2023-04-27T07:33:47.923Z,30.70
2023-04-27T07:38:52.024Z,30.24
2023-04-27T07:43:56.201Z,26.32
2023-04-27T07:49:02.624Z,28.36
2023-04-27T07:54:07.132Z,28.51
2023-04-27T07:59:11.909Z,29.08
2023-04-27T08:04:18.392Z,30.75
2023-04-27T08:09:23.480Z,33.35
2023-04-27T08:14:28.288Z,35.56
2023-04-27T08:19:33.806Z,37.25
2023-04-27T08:24:38.153Z,37.97
2023-04-27T08:29:47.263Z,38.92
2023-04-27T08:34:53.133Z,37.47
2023-04-27T08:39:57.582Z,32.44
2023-04-27T08:45:02.073Z,29.87
2023-04-27T08:50:11.762Z,30.80
2023-04-27T08:55:18.244Z,32.94
2023-04-27T09:00:23.067Z,34.77
2023-04-27T09:05:28.727Z,36.45
2023-04-27T09:10:45.266Z,35.35
2023-04-27T09:15:50.959Z,35.68
2023-04-27T09:20:56.607Z,37.75
2023-04-27T09:26:02.189Z,35.38
2023-04-27T09:31:09.499Z,35.16
2023-04-27T09:36:15.796Z,36.35
2023-04-27T09:41:20.324Z,37.01
2023-04-27T09:46:25.397Z,38.22
2023-04-27T09:51:32.074Z,38.26
2023-04-27T09:56:47.874Z,38.48
2023-04-27T10:01:55.988Z,38.17
2023-04-27T10:07:03.267Z,37.19
2023-04-27T10:12:18.860Z,36.29
2023-04-27T10:17:28.025Z,36.21
2023-04-27T10:22:41.559Z,36.18
2023-04-27T10:27:49.827Z,35.12
2023-04-27T10:32:56.197Z,35.38
2023-04-27T10:38:09.192Z,38.42
2023-04-27T10:43:14.951Z,36.50
2023-04-27T10:48:19.347Z,36.31
2023-04-27T10:53:25.413Z,34.02
2023-04-27T10:58:37.700Z,34.46
2023-04-27T11:03:57.351Z,34.95
2023-04-27T11:09:03.411Z,32.69
2023-04-27T11:14:08.260Z,33.37
2023-04-27T11:19:13.061Z,33.95
2023-04-27T11:24:19.008Z,34.90
2023-04-27T11:29:24.052Z,35.12
2023-04-27T11:34:28.312Z,35.98
2023-04-27T11:39:37.272Z,37.82
2023-04-27T11:44:41.689Z,37.90
2023-04-27T11:49:48.693Z,36.74
2023-04-27T11:54:56.715Z,34.36
2023-04-27T12:00:02.838Z,34.54
2023-04-27T12:05:17.515Z,32.50
2023-04-27T12:10:23.147Z,34.46
2023-04-27T12:15:27.292Z,33.81
2023-04-27T12:20:31.662Z,34.08
2023-04-27T12:25:38.047Z,34.86
2023-04-27T12:30:42.222Z,37.02
2023-04-27T12:35:46.543Z,37.94
2023-04-27T12:40:52.139Z,38.59
2023-04-27T12:45:56.485Z,36.38
2023-04-27T12:51:00.715Z,36.83
2023-04-27T12:56:07.164Z,36.73
2023-04-27T13:01:15.209Z,36.36
2023-04-27T13:06:20.314Z,36.17
2023-04-27T13:11:27.591Z,36.34
2023-04-27T13:16:31.976Z,36.61
2023-04-27T13:21:36.275Z,37.07
2023-04-27T13:26:43.607Z,35.91
2023-04-27T13:31:48.090Z,34.08
2023-04-27T13:36:52.540Z,32.31
2023-04-27T13:41:58.361Z,32.24
2023-04-27T13:47:02.661Z,30.19
2023-04-27T13:52:09.289Z,30.60
2023-04-27T13:57:15.347Z,29.14
2023-04-27T14:02:19.624Z,31.36
2023-04-27T14:07:24.022Z,34.13
2023-04-27T14:12:30.270Z,36.17
2023-04-27T14:17:35.228Z,35.91
2023-04-27T14:22:39.934Z,37.49
2023-04-27T14:27:45.842Z,38.16
2023-04-27T14:32:50.327Z,38.12
2023-04-27T14:37:57.296Z,38.17
2023-04-27T14:43:02.828Z,37.30
2023-04-27T14:48:07.338Z,37.36
2023-04-27T14:53:11.874Z,38.56
2023-04-27T14:58:17.431Z,38.74
2023-04-27T15:03:22.088Z,40.26
2023-04-27T15:08:26.780Z,40.33
2023-04-27T15:13:32.829Z,38.02
2023-04-27T15:18:36.920Z,34.40
2023-04-27T15:23:41.090Z,36.61
2023-04-27T15:28:46.682Z,38.88
2023-04-27T15:33:50.825Z,38.60
2023-04-27T15:38:55.548Z,38.69
2023-04-27T15:44:01.276Z,38.39
2023-04-27T15:49:05.491Z,39.61
2023-04-27T15:54:09.802Z,39.61
2023-04-27T15:59:15.704Z,39.74
2023-04-27T16:04:20.449Z,40.21
2023-04-27T16:09:25.769Z,40.40
2023-04-27T16:14:31.667Z,40.63
2023-04-27T16:19:35.797Z,40.85
2023-04-27T16:24:39.977Z,41.12
2023-04-27T16:29:45.854Z,42.49
2023-04-27T16:34:49.934Z,43.27
2023-04-27T16:39:54.415Z,42.93
2023-04-27T16:45:00.123Z,42.36
2023-04-27T16:50:04.956Z,43.30
2023-04-27T16:55:10.449Z,43.71
2023-04-27T17:00:17.303Z,42.84
2023-04-27T17:05:21.546Z,43.09
2023-04-27T17:10:26.028Z,42.43
2023-04-27T17:15:31.639Z,42.64
2023-04-27T17:20:36.034Z,43.35
2023-04-27T17:25:41.661Z,43.58
2023-04-27T17:30:47.304Z,43.91
2023-04-27T17:35:51.552Z,44.51
2023-04-27T17:40:56.120Z,44.48
2023-04-27T17:46:02.223Z,45.77
2023-04-27T17:51:06.399Z,44.85
2023-04-27T17:56:10.728Z,45.05
2023-04-27T18:01:16.442Z,46.06
2023-04-27T18:06:21.818Z,46.33
2023-04-27T18:11:26.084Z,45.60
2023-04-27T18:16:31.768Z,45.82
2023-04-27T18:21:36.608Z,46.93
2023-04-27T18:26:40.838Z,47.97
2023-04-27T18:31:46.875Z,49.22
2023-04-27T18:36:52.241Z,49.40
2023-04-27T18:41:57.558Z,48.99
2023-04-27T18:47:03.649Z,49.71
2023-04-27T18:52:11.580Z,50.32
2023-04-27T18:57:15.992Z,51.59
2023-04-27T19:02:21.601Z,52.70
2023-04-27T19:07:26.407Z,53.73
2023-04-27T19:12:31.604Z,54.39
2023-04-27T19:17:37.269Z,54.29
2023-04-27T19:22:41.640Z,55.97
2023-04-27T19:27:46.300Z,56.69
2023-04-27T19:32:52.265Z,56.34
2023-04-27T19:37:56.599Z,56.58
2023-04-27T19:43:00.949Z,57.39
2023-04-27T19:48:07.592Z,57.48
2023-04-27T19:53:12.067Z,58.78
2023-04-27T19:58:16.623Z,58.87
2023-04-27T20:03:22.797Z,59.82
2023-04-27T20:08:27.122Z,59.76
2023-04-27T20:13:31.705Z,60.12
2023-04-27T20:18:38.142Z,60.70
2023-04-27T20:23:43.062Z,60.84
2023-04-27T20:28:47.502Z,61.84
2023-04-27T20:33:53.413Z,62.76
2023-04-27T20:39:01.027Z,60.36
2023-04-27T20:44:05.302Z,61.06
2023-04-27T20:49:12.067Z,63.02
2023-04-27T20:54:16.706Z,62.40
2023-04-27T20:59:21.203Z,62.02
2023-04-27T21:04:26.878Z,62.51
2023-04-27T21:09:31.464Z,62.79
2023-04-27T21:14:35.619Z,63.77
2023-04-27T21:19:41.092Z,64.31
2023-04-27T21:24:45.308Z,64.37
2023-04-27T21:29:49.659Z,64.96
2023-04-27T21:34:55.438Z,65.92
2023-04-27T21:39:59.574Z,66.46
2023-04-27T21:45:04.757Z,67.39
2023-04-27T21:50:11.419Z,67.85
2023-04-27T21:55:19.294Z,68.00
2023-04-27T22:00:23.973Z,68.25
2023-04-27T22:05:29.590Z,67.23
2023-04-27T22:10:33.841Z,66.87
2023-04-27T22:15:38.451Z,67.44
2023-04-27T22:20:44.954Z,67.68
2023-04-27T22:25:49.080Z,67.84
2023-04-27T22:30:53.261Z,68.02
2023-04-27T22:35:59.104Z,68.94
2023-04-27T22:41:03.479Z,70.00
2023-04-27T22:46:07.591Z,69.71
2023-04-27T22:51:13.414Z,68.61
2023-04-27T22:56:17.731Z,67.43
2023-04-27T23:01:21.931Z,67.25
2023-04-27T23:06:28.636Z,66.97
2023-04-27T23:11:32.961Z,66.89
2023-04-27T23:16:37.438Z,67.07
2023-04-27T23:21:43.384Z,66.79
2023-04-27T23:26:47.711Z,67.05
2023-04-27T23:31:51.911Z,68.34
2023-04-27T23:36:57.422Z,68.00
2023-04-27T23:42:02.032Z,64.47
2023-04-27T23:47:06.440Z,62.62
2023-04-27T23:52:12.839Z,63.33
2023-04-27T23:57:17.234Z,63.13
